Time;durP1;ratioP1;P1;durP2;ratioP2;P2;SDS_P1;SDS_P2;PMS_P1;PMS_P2;Temp;Humidity;BMP_temperature;BMP_pressure;BME280_temperature;BME280_humidity;BME280_pressure;Samples;Min_cycle;Max_cycle;Signal;HPM_P1;HPM_P2
2022/05/03 07:15:04;;;;;;;2.72;1.80;;;21.10;79.40;;;;;;4130004;23;20706;-76
2022/05/03 07:23:00;;;;;;;2.53;1.70;;;23.20;74.10;;;;;;4954336;28;20238;-72
2022/05/03 07:25:27;;;;;;;2.33;1.73;;;23.30;72.50;;;;;;4946787;28;20223;-76
2022/05/03 07:27:54;;;;;;;1.80;1.45;;;22.90;72.90;;;;;;4935376;29;20299;-76
2022/05/03 07:30:23;;;;;;;2.85;1.70;;;22.50;71.30;;;;;;4940507;28;20223;-76
2022/05/03 07:32:50;;;;;;;2.03;1.30;;;21.60;71.80;;;;;;4946227;28;20216;-75
2022/05/03 07:35:17;;;;;;;2.80;1.75;;;21.40;74.00;;;;;;4952509;28;20227;-76
2022/05/03 07:37:44;;;;;;;2.03;1.48;;;21.20;74.00;;;;;;4949299;28;20204;-76
2022/05/03 07:40:11;;;;;;;2.75;1.52;;;21.10;74.00;;;;;;4945636;28;20618;-75
2022/05/03 07:42:38;;;;;;;2.45;1.33;;;21.20;75.60;;;;;;4946781;28;20246;-75
2022/05/03 07:45:06;;;;;;;2.00;1.60;;;21.30;74.80;;;;;;4943901;29;20294;-77
2022/05/03 07:47:34;;;;;;;2.28;1.65;;;22.00;73.50;;;;;;4943655;28;20207;-76
2022/05/03 07:50:01;;;;;;;3.85;1.52;;;22.80;73.80;;;;;;4945076;29;20230;-77
2022/05/03 07:52:28;;;;;;;1.85;1.20;;;23.00;70.60;;;;;;4949027;28;20220;-76
2022/05/03 07:54:55;;;;;;;2.33;1.50;;;22.80;69.30;;;;;;4944534;28;20239;-76
2022/05/03 07:57:22;;;;;;;5.03;1.55;;;22.70;70.60;;;;;;4956123;28;20215;-75
2022/05/03 07:59:49;;;;;;;3.15;1.60;;;22.80;69.70;;;;;;4957975;28;20415;-71
2022/05/03 08:02:16;;;;;;;2.60;1.75;;;22.70;68.90;;;;;;4957866;28;20235;-72
2022/05/03 08:04:44;;;;;;;1.70;1.27;;;22.70;70.10;;;;;;4957847;28;20212;-76
2022/05/03 08:07:10;;;;;;;2.53;1.80;;;22.50;70.90;;;;;;4957822;28;20215;-74
2022/05/03 08:09:37;;;;;;;2.63;1.85;;;22.70;70.40;;;;;;4957582;28;20211;-74
2022/05/03 08:12:05;;;;;;;3.15;1.55;;;22.80;69.90;;;;;;4949775;28;20225;-72
2022/05/03 08:14:33;;;;;;;2.60;1.83;;;22.90;69.70;;;;;;4945350;28;20702;-76
2022/05/03 08:17:00;;;;;;;3.20;1.30;;;22.90;69.10;;;;;;4952814;28;20219;-68
2022/05/03 08:19:27;;;;;;;2.00;1.42;;;22.20;70.40;;;;;;4942499;28;20690;-72
2022/05/03 08:21:56;;;;;;;2.35;1.55;;;21.70;71.10;;;;;;4944973;28;20226;-76
2022/05/03 08:24:23;;;;;;;3.70;1.60;;;21.50;71.60;;;;;;4948086;28;20616;-73
2022/05/03 08:26:50;;;;;;;1.88;1.35;;;21.50;70.90;;;;;;4945794;29;20743;-76
2022/05/03 08:29:17;;;;;;;2.53;1.83;;;21.80;70.20;;;;;;4940479;29;20215;-75
2022/05/03 08:31:44;;;;;;;3.33;1.63;;;22.60;69.10;;;;;;4939622;28;20232;-71
2022/05/03 08:34:12;;;;;;;2.08;1.38;;;22.50;69.60;;;;;;4945912;28;20255;-74
2022/05/03 08:36:39;;;;;;;2.63;1.65;;;21.80;69.40;;;;;;4946734;28;20274;-73
2022/05/03 08:44:33;;;;;;;2.33;1.50;;;22.10;68.70;;;;;;4947626;28;20794;-75
2022/05/03 08:47:03;;;;;;;2.40;1.45;;;21.60;70.30;;;;;;4945306;29;20204;-71
2022/05/03 08:49:37;;;;;;;4.10;1.90;;;21.40;72.40;;;;;;4949209;28;20203;-68
2022/05/03 08:52:08;;;;;;;3.25;1.50;;;22.00;70.50;;;;;;4941839;29;20258;-75
2022/05/03 08:54:37;;;;;;;2.72;1.92;;;21.70;70.50;;;;;;4946761;28;20240;-73
2022/05/03 08:57:07;;;;;;;3.10;1.77;;;21.70;71.70;;;;;;4939939;29;20212;-72
2022/05/03 08:59:35;;;;;;;2.65;1.60;;;21.00;72.10;;;;;;4944339;29;20197;-70
2022/05/03 09:02:02;;;;;;;3.80;1.85;;;21.10;72.90;;;;;;4943354;28;20224;-74
2022/05/03 09:04:29;;;;;;;2.72;1.75;;;21.00;73.90;;;;;;4946962;28;20204;-72
2022/05/03 09:06:56;;;;;;;4.55;2.30;;;21.50;74.40;;;;;;4948361;28;20209;-75
2022/05/03 09:09:23;;;;;;;3.17;1.92;;;21.90;73.50;;;;;;4950785;28;20235;-77
2022/05/03 09:11:53;;;;;;;3.00;2.05;;;21.80;73.20;;;;;;4947210;28;20311;-73
2022/05/03 09:14:36;;;;;;;3.30;1.90;;;22.00;73.20;;;;;;4948809;28;20236;-76
2022/05/03 09:17:03;;;;;;;3.28;1.80;;;21.80;74.00;;;;;;4948949;28;20666;-77
2022/05/03 09:19:30;;;;;;;3.15;1.92;;;21.00;74.90;;;;;;4949118;28;20263;-76
2022/05/03 09:24:55;;;;;;;3.05;1.55;;;20.50;76.30;;;;;;4935392;29;20696;-75
2022/05/03 09:27:24;;;;;;;1.98;1.58;;;20.30;78.20;;;;;;4950075;28;20211;-73
2022/05/03 09:30:05;;;;;;;2.58;1.65;;;19.80;77.50;;;;;;4950876;28;20578;-71
2022/05/03 09:32:39;;;;;;;2.80;1.70;;;19.20;78.80;;;;;;4948438;28;20635;-73
2022/05/03 09:35:07;;;;;;;5.03;1.67;;;19.40;79.90;;;;;;4948731;28;20322;-76
2022/05/03 09:37:40;;;;;;;2.30;1.58;;;19.90;79.30;;;;;;4937163;28;20220;-72
2022/05/03 09:40:09;;;;;;;2.97;1.55;;;19.90;79.10;;;;;;4939310;29;20219;-74
2022/05/03 09:42:38;;;;;;;3.75;1.77;;;19.70;79.20;;;;;;4944650;28;20251;-72
2022/05/03 09:45:08;;;;;;;3.05;1.83;;;19.70;79.40;;;;;;4939261;28;20626;-72
2022/05/03 09:47:48;;;;;;;3.65;1.80;;;19.50;79.10;;;;;;4934922;28;20248;-75
2022/05/03 09:50:26;;;;;;;3.77;2.07;;;18.60;81.80;;;;;;4947142;28;20220;-70
2022/05/03 09:52:54;;;;;;;3.03;1.73;;;19.00;81.90;;;;;;4945367;28;20231;-71
2022/05/03 09:55:29;;;;;;;3.33;1.90;;;19.10;81.60;;;;;;4938334;28;20722;-73
2022/05/03 09:58:02;;;;;;;3.00;2.00;;;18.70;82.50;;;;;;4938443;28;20199;-78
2022/05/03 10:00:30;;;;;;;3.00;1.90;;;18.30;83.10;;;;;;4945105;28;20264;-74
2022/05/03 10:02:59;;;;;;;3.50;1.83;;;18.30;85.20;;;;;;4944741;28;20238;-74
2022/05/03 10:05:26;;;;;;;2.77;1.80;;;18.30;83.30;;;;;;4937626;28;20205;-75
2022/05/03 10:07:54;;;;;;;3.40;1.80;;;18.00;84.40;;;;;;4936961;29;20208;-73
2022/05/03 10:10:22;;;;;;;3.00;1.77;;;18.00;84.20;;;;;;4953183;28;20299;-76
2022/05/03 10:12:50;;;;;;;2.97;1.80;;;18.10;85.00;;;;;;4942486;28;20228;-73
2022/05/03 10:20:55;;;;;;;2.77;1.50;;;17.90;84.10;;;;;;4944197;28;20218;-73
2022/05/03 10:23:23;;;;;;;3.30;2.07;;;17.80;86.40;;;;;;4955901;28;20324;-75
2022/05/03 10:25:52;;;;;;;2.63;1.90;;;17.80;85.80;;;;;;4940138;28;20196;-73
2022/05/03 10:28:18;;;;;;;5.90;2.23;;;17.80;86.40;;;;;;4952860;28;20210;-74
2022/05/03 10:31:09;;;;;;;3.40;2.10;;;17.70;86.10;;;;;;4952132;28;20231;-70
2022/05/03 10:33:41;;;;;;;4.63;1.63;;;17.70;87.30;;;;;;4940588;28;20211;-73
2022/05/03 10:36:43;;;;;;;1.93;1.20;;;17.80;86.60;;;;;;4953467;28;20236;-70
2022/05/03 10:39:22;;;;;;;2.83;1.43;;;17.60;85.00;;;;;;4935729;29;20204;-70
2022/05/03 10:42:00;;;;;;;2.40;1.50;;;17.40;86.60;;;;;;4933213;29;20234;-70
2022/05/03 10:44:45;;;;;;;2.20;1.40;;;17.20;86.50;;;;;;4945798;28;20298;-70
2022/05/03 10:47:18;;;;;;;2.80;1.47;;;17.30;86.80;;;;;;4952721;28;20214;-74
2022/05/03 10:50:26;;;;;;;3.00;1.53;;;17.50;86.50;;;;;;4952913;28;20695;-72
2022/05/03 10:53:22;;;;;;;2.73;1.57;;;17.60;86.50;;;;;;4951966;28;20232;-72
2022/05/03 10:56:22;;;;;;;2.53;1.40;;;17.80;84.60;;;;;;4918190;28;20236;-72
2022/05/03 10:59:12;;;;;;;2.20;1.30;;;18.00;85.30;;;;;;4951790;28;20235;-73
2022/05/03 11:02:09;;;;;;;3.07;1.60;;;17.90;85.30;;;;;;4946280;28;20706;-72
2022/05/03 11:05:18;;;;;;;2.30;1.47;;;17.70;86.50;;;;;;4947563;28;20692;-74
2022/05/03 11:08:18;;;;;;;2.27;1.33;;;17.70;87.00;;;;;;4951253;28;20212;-73
2022/05/03 11:10:45;;;;;;;1.60;1.20;;;18.10;86.50;;;;;;4952638;28;20214;-70
2022/05/03 11:13:40;;;;;;;3.13;1.37;;;18.40;86.70;;;;;;4951716;28;20722;-70
2022/05/03 11:16:25;;;;;;;2.53;1.27;;;18.40;83.90;;;;;;4951500;28;20322;-74
2022/05/03 11:18:52;;;;;;;4.43;1.83;;;18.00;85.30;;;;;;4951580;28;20207;-74
2022/05/03 11:21:20;;;;;;;2.27;1.40;;;17.70;85.40;;;;;;4942330;28;20215;-73
2022/05/03 11:23:51;;;;;;;3.13;1.70;;;17.90;84.60;;;;;;4940224;28;20297;-72
2022/05/03 11:26:19;;;;;;;3.43;1.30;;;18.00;85.10;;;;;;4946355;28;20201;-72
2022/05/03 11:28:47;;;;;;;3.17;1.43;;;18.20;86.00;;;;;;4940273;28;20672;-74
2022/05/03 11:31:17;;;;;;;2.83;1.67;;;18.40;85.70;;;;;;4948553;28;20205;-74
2022/05/03 11:33:51;;;;;;;3.47;1.73;;;18.50;84.30;;;;;;4944743;28;20297;-74
2022/05/03 11:36:21;;;;;;;4.73;1.80;;;18.50;84.40;;;;;;4952615;28;20235;-73
2022/05/03 11:38:49;;;;;;;3.00;2.10;;;18.50;84.20;;;;;;4942051;28;20208;-74
2022/05/03 11:41:16;;;;;;;4.47;1.70;;;18.60;84.20;;;;;;4945271;28;20211;-75
2022/05/03 11:43:43;;;;;;;3.20;1.40;;;18.60;84.50;;;;;;4946534;28;20199;-76
2022/05/03 11:46:10;;;;;;;2.43;1.60;;;18.70;85.00;;;;;;4936660;29;20545;-75
2022/05/03 11:48:38;;;;;;;3.57;1.70;;;18.70;84.60;;;;;;4945578;28;20209;-73
2022/05/03 11:56:36;;;;;;;3.57;1.60;;;18.40;85.10;;;;;;4974368;28;20326;-76
2022/05/03 11:59:05;;;;;;;3.30;1.60;;;18.60;85.00;;;;;;4960094;28;20204;-75
2022/05/03 12:01:34;;;;;;;2.30;1.40;;;18.70;84.90;;;;;;4955698;28;20234;-76
2022/05/03 12:04:02;;;;;;;2.95;1.70;;;18.90;85.50;;;;;;4946541;28;20715;-74
2022/05/03 12:06:43;;;;;;;3.00;1.60;;;18.80;84.20;;;;;;4937689;29;20268;-78
2022/05/03 12:09:11;;;;;;;3.70;1.83;;;18.80;84.40;;;;;;4936109;29;20295;-75
2022/05/03 12:12:42;;;;;;;3.87;1.60;;;18.90;83.20;;;;;;4972292;28;20227;-78
2022/05/03 12:14:34;;;;;;;2.80;1.37;;;19.00;84.90;;;;;;4947997;28;20251;-74
2022/05/03 12:17:00;;;;;;;5.67;1.90;;;19.10;83.50;;;;;;4939413;28;20240;-74
2022/05/03 12:19:33;;;;;;;3.73;1.63;;;19.00;84.40;;;;;;4936018;29;20312;-74
2022/05/03 12:22:09;;;;;;;3.77;1.47;;;19.00;86.00;;;;;;4954626;28;20247;-75
2022/05/03 12:24:41;;;;;;;2.57;1.73;;;19.20;85.80;;;;;;4957348;28;20287;-72
2022/05/03 12:27:12;;;;;;;1.93;1.23;;;19.30;83.70;;;;;;4957198;28;20216;-74
2022/05/03 12:29:45;;;;;;;1.83;1.40;;;19.30;83.50;;;;;;4957529;28;20204;-74
2022/05/03 12:32:14;;;;;;;2.83;1.53;;;18.70;84.80;;;;;;4957245;28;20234;-71
2022/05/03 12:34:42;;;;;;;2.40;1.20;;;18.50;84.80;;;;;;4955459;28;20235;-71
2022/05/03 12:37:10;;;;;;;4.87;1.73;;;18.70;84.40;;;;;;4953789;28;20228;-73
2022/05/03 12:39:38;;;;;;;2.43;1.43;;;19.00;84.10;;;;;;4956599;28;20738;-74
2022/05/03 12:42:10;;;;;;;2.10;1.50;;;19.30;84.10;;;;;;4952372;28;20231;-73
2022/05/03 12:44:48;;;;;;;5.13;1.60;;;19.50;84.00;;;;;;4956358;28;20675;-74
2022/05/03 12:47:15;;;;;;;2.97;1.90;;;19.70;84.60;;;;;;4966499;28;20207;-73
2022/05/03 12:49:42;;;;;;;2.55;1.40;;;19.60;84.40;;;;;;4963261;28;20196;-74
2022/05/03 12:52:09;;;;;;;2.30;1.60;;;19.50;83.90;;;;;;4956463;28;20690;-74
2022/05/03 12:54:41;;;;;;;2.40;1.50;;;19.30;83.60;;;;;;4952523;28;20201;-73
2022/05/03 12:59:53;;;;;;;1.60;1.20;;;19.00;85.00;;;;;;4947152;28;20206;-74
2022/05/03 13:02:20;;;;;;;1.80;1.23;;;19.20;83.00;;;;;;4944544;28;20225;-73
2022/05/03 13:04:47;;;;;;;2.23;1.37;;;19.30;80.70;;;;;;4946361;28;20200;-73
2022/05/03 13:07:14;;;;;;;1.93;1.40;;;19.30;83.90;;;;;;4945725;28;20651;-73
2022/05/03 13:09:42;;;;;;;2.83;1.75;;;19.40;85.80;;;;;;4943843;28;20203;-74
2022/05/03 13:12:10;;;;;;;3.53;1.70;;;19.40;85.00;;;;;;4944517;28;20224;-74
2022/05/03 13:14:37;;;;;;;2.08;1.23;;;19.50;83.90;;;;;;4937451;28;20734;-73
2022/05/03 13:17:05;;;;;;;1.95;1.52;;;19.40;84.50;;;;;;4942708;29;20243;-73
2022/05/03 13:19:32;;;;;;;2.97;1.70;;;19.30;85.30;;;;;;4946666;28;20211;-73
2022/05/03 13:21:59;;;;;;;5.43;2.43;;;19.10;88.00;;;;;;4954834;28;20228;-73
2022/05/03 13:24:26;;;;;;;3.20;1.70;;;19.10;88.50;;;;;;4940521;29;20204;-73
2022/05/03 13:26:54;;;;;;;3.67;2.00;;;19.20;88.60;;;;;;4947342;28;20208;-74
2022/05/03 13:29:21;;;;;;;3.57;2.30;;;19.10;88.60;;;;;;4947158;28;20208;-72
2022/05/03 13:31:48;;;;;;;3.57;2.00;;;19.20;87.90;;;;;;4945178;28;20216;-73
2022/05/03 13:34:15;;;;;;;3.30;1.97;;;19.10;86.60;;;;;;4953213;28;20208;-72
2022/05/03 13:42:13;;;;;;;4.30;1.53;;;19.40;86.60;;;;;;4950888;29;20242;-74
2022/05/03 13:44:40;;;;;;;3.00;1.73;;;19.40;87.40;;;;;;4942023;28;20211;-72
2022/05/03 13:47:08;;;;;;;4.67;1.63;;;19.40;87.00;;;;;;4940990;28;20545;-72
2022/05/03 13:49:35;;;;;;;3.47;1.70;;;19.50;87.00;;;;;;4949136;28;20204;-74
2022/05/03 13:52:16;;;;;;;2.83;1.70;;;19.50;86.00;;;;;;4945205;28;20228;-74
2022/05/03 13:54:43;;;;;;;3.83;2.30;;;19.40;87.10;;;;;;4952088;28;20570;-74
2022/05/03 13:57:09;;;;;;;3.20;1.87;;;19.50;85.40;;;;;;4940725;28;20591;-74
2022/05/03 13:59:38;;;;;;;4.93;2.10;;;19.70;86.60;;;;;;4947068;28;20556;-73
2022/05/03 14:02:11;;;;;;;4.50;2.10;;;19.90;85.80;;;;;;4948569;28;20231;-73
2022/05/03 14:04:38;;;;;;;3.87;2.17;;;19.90;86.00;;;;;;4940528;29;20668;-75
2022/05/03 14:07:06;;;;;;;3.57;1.90;;;19.90;86.80;;;;;;4947147;28;20207;-73
2022/05/03 14:09:32;;;;;;;2.63;1.80;;;20.00;86.20;;;;;;4948663;28;20204;-74
2022/05/03 14:11:59;;;;;;;7.70;2.20;;;20.30;86.60;;;;;;4944844;28;20598;-73
2022/05/03 14:14:26;;;;;;;3.33;1.90;;;20.40;84.60;;;;;;4949779;28;20228;-74
2022/05/03 14:16:54;;;;;;;4.73;2.40;;;20.40;84.50;;;;;;4943360;28;20237;-73
2022/05/03 14:19:21;;;;;;;3.53;2.03;;;20.50;86.20;;;;;;4943639;28;20668;-74
2022/05/03 14:21:48;;;;;;;5.53;2.20;;;20.70;84.90;;;;;;4950263;28;20232;-75
2022/05/03 14:24:15;;;;;;;4.30;1.98;;;20.60;83.60;;;;;;4938725;28;20208;-75
2022/05/03 14:26:42;;;;;;;4.20;1.90;;;20.60;84.50;;;;;;4941686;28;20200;-71
2022/05/03 14:29:09;;;;;;;2.38;1.75;;;20.60;85.00;;;;;;4943792;28;20204;-74
2022/05/03 14:31:36;;;;;;;19.30;3.28;;;20.70;85.80;;;;;;4946513;28;20571;-75
2022/05/03 14:34:05;;;;;;;4.15;2.42;;;20.80;85.20;;;;;;4938298;29;20205;-71
2022/05/03 14:36:32;;;;;;;4.88;2.33;;;20.60;84.40;;;;;;4939505;28;20247;-74
2022/05/03 14:39:00;;;;;;;7.07;3.55;;;20.50;85.60;;;;;;4938507;28;20257;-71
2022/05/03 14:41:26;;;;;;;6.77;4.17;;;20.40;89.90;;;;;;4953136;28;20238;-72
2022/05/03 14:43:53;;;;;;;7.37;3.63;;;19.80;90.10;;;;;;4940309;28;20204;-70
2022/05/03 14:46:20;;;;;;;5.87;3.20;;;19.70;90.60;;;;;;4949852;28;20666;-72
2022/05/03 14:48:47;;;;;;;6.80;4.07;;;19.80;90.20;;;;;;4936971;28;20256;-68
2022/05/03 14:51:15;;;;;;;6.13;3.50;;;20.10;90.70;;;;;;4952587;28;20217;-72
2022/05/03 14:53:42;;;;;;;9.83;4.23;;;20.10;91.00;;;;;;4951944;28;20208;-72
2022/05/03 15:04:27;;;;;;;7.90;4.60;;;19.70;90.90;;;;;;4946450;28;20265;-73
2022/05/03 15:06:55;;;;;;;10.07;3.97;;;19.60;91.30;;;;;;4950877;28;20208;-74
2022/05/03 15:09:21;;;;;;;6.73;4.40;;;19.50;92.10;;;;;;4940308;28;20204;-75
2022/05/03 15:11:49;;;;;;;7.33;4.40;;;19.30;92.00;;;;;;4948158;28;20232;-73
2022/05/03 15:14:16;;;;;;;8.80;4.83;;;19.10;92.70;;;;;;4946036;28;20216;-73
2022/05/03 15:16:42;;;;;;;5.73;4.40;;;19.10;92.90;;;;;;4951839;28;20227;-73
2022/05/03 15:19:09;;;;;;;6.53;3.87;;;19.00;92.90;;;;;;4934949;29;20204;-73
2022/05/03 15:21:36;;;;;;;8.37;4.63;;;19.00;93.50;;;;;;4941665;28;20228;-73
2022/05/03 15:26:50;;;;;;;7.80;4.60;;;19.10;92.80;;;;;;4938311;28;20211;-72
2022/05/03 15:29:16;;;;;;;6.23;4.20;;;19.10;92.80;;;;;;4940403;28;20570;-77
2022/05/03 15:31:44;;;;;;;6.20;4.23;;;19.20;92.80;;;;;;4944617;28;20252;-75
2022/05/03 15:34:11;;;;;;;6.93;4.50;;;19.00;92.70;;;;;;4949987;28;20221;-74
2022/05/03 15:36:38;;;;;;;7.33;4.53;;;18.80;92.70;;;;;;4952734;28;20255;-71
2022/05/03 15:39:06;;;;;;;7.87;4.40;;;18.70;92.80;;;;;;4936507;28;20267;-76
2022/05/03 15:41:33;;;;;;;7.13;4.37;;;18.90;93.60;;;;;;4933758;29;20260;-75
2022/05/03 15:44:00;;;;;;;6.83;4.30;;;19.00;93.30;;;;;;4950041;28;20220;-74
2022/05/03 15:46:27;;;;;;;5.97;4.20;;;19.00;93.20;;;;;;4938947;28;20714;-74
2022/05/03 15:48:54;;;;;;;6.57;4.00;;;18.90;92.60;;;;;;4952177;28;20200;-74
2022/05/03 15:51:23;;;;;;;6.10;4.27;;;18.80;93.00;;;;;;4953290;28;20200;-74
2022/05/03 15:53:50;;;;;;;8.17;4.13;;;18.80;92.90;;;;;;4953542;28;20578;-73
2022/05/03 15:56:18;;;;;;;8.73;4.23;;;18.90;93.50;;;;;;4944562;28;20204;-74
2022/05/03 15:58:45;;;;;;;6.97;4.20;;;19.00;93.50;;;;;;4946568;28;20216;-73
2022/05/03 16:01:12;;;;;;;6.80;4.10;;;18.80;92.90;;;;;;4936035;28;20390;-71
2022/05/03 16:03:39;;;;;;;5.93;4.07;;;18.70;93.00;;;;;;4948964;28;20211;-72
2022/05/03 16:06:06;;;;;;;7.53;4.60;;;18.80;93.40;;;;;;4945924;28;20205;-72
2022/05/03 16:08:33;;;;;;;8.30;4.70;;;18.80;93.30;;;;;;4946766;28;20216;-71
2022/05/03 16:11:00;;;;;;;8.47;4.80;;;18.70;93.60;;;;;;4951532;28;20260;-73
2022/05/03 16:13:28;;;;;;;10.13;5.30;;;18.70;93.90;;;;;;4952472;28;20260;-72
2022/05/03 16:15:55;;;;;;;8.30;4.60;;;18.60;94.20;;;;;;4948971;28;20252;-71
2022/05/03 16:18:22;;;;;;;9.20;5.10;;;18.60;94.70;;;;;;4954984;28;20334;-72
2022/05/03 16:20:51;;;;;;;9.87;4.93;;;18.50;94.70;;;;;;4955743;28;20671;-72
2022/05/03 16:23:18;;;;;;;8.03;4.80;;;18.50;94.80;;;;;;4956230;28;20228;-71
2022/05/03 16:25:45;;;;;;;8.33;4.97;;;18.60;94.50;;;;;;4955267;28;20207;-72
2022/05/03 16:28:12;;;;;;;10.90;5.67;;;18.70;94.70;;;;;;4956792;28;20212;-72
2022/05/03 16:30:40;;;;;;;10.87;5.37;;;18.80;94.80;;;;;;4956810;28;20295;-72
2022/05/03 16:33:07;;;;;;;8.60;4.97;;;18.70;94.90;;;;;;4956054;28;20230;-72
2022/05/03 16:35:34;;;;;;;9.93;5.73;;;18.60;95.00;;;;;;4957298;28;20208;-73
2022/05/03 16:43:35;;;;;;;12.20;5.43;;;18.60;94.90;;;;;;4955335;28;20212;-71
2022/05/03 16:46:03;;;;;;;8.70;5.03;;;18.40;95.30;;;;;;4956574;28;20219;-73
2022/05/03 16:48:30;;;;;;;9.70;5.77;;;18.20;95.80;;;;;;4956342;28;20251;-73
2022/05/03 16:50:57;;;;;;;10.13;5.07;;;18.10;95.70;;;;;;4955133;28;20712;-73
2022/05/03 16:53:24;;;;;;;8.73;4.90;;;18.10;96.10;;;;;;4956201;28;20224;-71
2022/05/03 16:55:51;;;;;;;10.97;5.13;;;18.10;96.30;;;;;;4955798;28;20211;-72
2022/05/03 16:58:18;;;;;;;12.97;5.50;;;18.10;96.20;;;;;;4953993;28;20300;-71
2022/05/03 17:00:45;;;;;;;9.47;5.00;;;18.00;96.10;;;;;;4953102;28;20294;-72
2022/05/03 17:03:13;;;;;;;10.00;4.80;;;18.00;96.30;;;;;;4955782;28;20370;-73
2022/05/03 17:05:40;;;;;;;9.83;5.90;;;18.00;96.50;;;;;;4955061;28;20682;-73
2022/05/03 17:08:08;;;;;;;9.73;5.77;;;18.00;96.80;;;;;;4954939;28;20566;-71
2022/05/03 17:10:35;;;;;;;10.27;5.20;;;17.90;96.80;;;;;;4955007;28;20746;-74
2022/05/03 17:13:02;;;;;;;11.60;5.53;;;17.90;97.10;;;;;;4955976;28;20707;-72
2022/05/03 17:15:29;;;;;;;9.37;4.63;;;18.00;97.10;;;;;;4954904;28;20212;-70
2022/05/03 17:17:56;;;;;;;11.07;5.43;;;18.10;97.20;;;;;;4938386;28;20228;-74
2022/05/03 17:20:24;;;;;;;8.97;4.83;;;18.10;97.50;;;;;;4953804;28;20220;-71
2022/05/03 17:22:51;;;;;;;12.77;4.90;;;18.10;97.50;;;;;;4955401;28;20699;-74
2022/05/03 17:25:19;;;;;;;8.93;3.97;;;18.10;97.90;;;;;;4954061;28;20243;-70
2022/05/03 17:27:46;;;;;;;10.00;4.80;;;18.20;98.00;;;;;;4953816;28;20204;-69
2022/05/03 17:30:15;;;;;;;12.07;4.97;;;18.20;98.30;;;;;;4948875;28;20211;-71
2022/05/03 17:32:42;;;;;;;7.43;4.20;;;18.10;98.50;;;;;;4947776;28;20279;-71
2022/05/03 17:35:09;;;;;;;8.43;4.20;;;18.00;98.70;;;;;;4953842;28;20207;-74
2022/05/03 17:37:38;;;;;;;7.73;4.20;;;17.90;99.10;;;;;;4942244;28;20232;-70
2022/05/03 17:40:06;;;;;;;8.30;4.43;;;17.80;99.10;;;;;;4945652;29;20218;-69
2022/05/03 17:42:33;;;;;;;10.77;4.40;;;17.60;99.60;;;;;;4944894;28;20224;-70
2022/05/03 17:45:00;;;;;;;7.13;3.70;;;17.60;99.60;;;;;;4945363;28;20211;-72
2022/05/03 17:47:27;;;;;;;11.37;4.17;;;17.50;99.70;;;;;;4952664;28;20211;-71
2022/05/03 17:49:54;;;;;;;8.50;4.10;;;17.30;99.90;;;;;;4954191;28;20227;-71
2022/05/03 17:55:07;;;;;;;8.80;3.77;;;16.90;99.90;;;;;;4953490;28;20250;-73
2022/05/03 17:57:34;;;;;;;6.80;4.13;;;16.70;99.90;;;;;;4955020;28;20240;-70
2022/05/03 18:00:00;;;;;;;5.57;4.00;;;16.50;99.90;;;;;;4953919;28;20214;-72
2022/05/03 18:02:27;;;;;;;7.20;3.40;;;16.50;99.90;;;;;;4954884;28;20228;-69
2022/05/03 18:04:54;;;;;;;9.23;3.60;;;16.40;99.90;;;;;;4955096;28;20203;-71
2022/05/03 18:07:21;;;;;;;7.40;3.67;;;16.30;99.90;;;;;;4953953;28;20208;-72
2022/05/03 18:09:48;;;;;;;8.77;3.07;;;16.10;99.90;;;;;;4955349;28;20279;-70
2022/05/03 18:12:16;;;;;;;7.67;4.07;;;16.00;99.90;;;;;;4955253;28;20232;-73
2022/05/03 18:14:44;;;;;;;11.93;4.03;;;16.00;99.90;;;;;;4954952;28;20300;-73
2022/05/03 18:17:11;;;;;;;10.80;3.97;;;15.90;99.90;;;;;;4953839;28;20318;-72
2022/05/03 18:19:39;;;;;;;7.70;3.90;;;15.80;99.90;;;;;;4954198;28;20208;-70
2022/05/03 18:22:07;;;;;;;6.27;3.43;;;15.80;99.90;;;;;;4954266;28;20319;-71
2022/05/03 18:24:35;;;;;;;9.13;3.77;;;15.80;99.90;;;;;;4953678;28;20309;-70
2022/05/03 18:27:02;;;;;;;6.40;3.03;;;15.70;99.90;;;;;;4943785;28;20663;-69
2022/05/03 18:29:30;;;;;;;7.20;3.57;;;15.60;99.90;;;;;;4939617;28;20208;-73
2022/05/03 18:31:57;;;;;;;6.53;4.10;;;15.70;99.90;;;;;;4947401;29;20316;-74
2022/05/03 18:34:24;;;;;;;10.37;4.33;;;15.50;99.90;;;;;;4945113;28;20196;-74
2022/05/03 18:36:52;;;;;;;7.77;3.90;;;15.50;99.90;;;;;;4936826;28;20209;-69
2022/05/03 18:39:18;;;;;;;8.80;4.00;;;15.40;99.90;;;;;;4954558;28;20219;-69
2022/05/03 18:41:46;;;;;;;5.80;3.60;;;15.50;99.90;;;;;;4953906;28;20228;-72
2022/05/03 18:44:13;;;;;;;9.57;4.47;;;15.30;99.90;;;;;;4951600;28;20302;-73
2022/05/03 18:46:41;;;;;;;9.00;4.63;;;15.40;99.90;;;;;;4954392;28;20208;-73
2022/05/03 18:49:08;;;;;;;8.40;3.90;;;15.40;99.90;;;;;;4952387;28;20208;-72
2022/05/03 18:51:35;;;;;;;10.57;4.53;;;15.50;99.90;;;;;;4943414;29;20231;-71
2022/05/03 18:56:47;;;;;;;14.27;5.63;;;15.50;99.90;;;;;;4953000;29;20208;-73
2022/05/03 18:59:13;;;;;;;12.83;5.40;;;15.50;99.90;;;;;;4954054;28;20327;-71
2022/05/03 19:01:41;;;;;;;12.63;6.07;;;15.40;99.90;;;;;;4953610;28;20230;-72
2022/05/03 19:04:08;;;;;;;13.57;6.30;;;15.30;99.90;;;;;;4954211;28;20216;-71
2022/05/03 19:06:35;;;;;;;13.57;6.13;;;15.30;99.90;;;;;;4939490;28;20212;-70
2022/05/03 19:09:02;;;;;;;13.20;6.07;;;15.20;99.90;;;;;;4941773;28;20211;-69
2022/05/03 19:11:29;;;;;;;12.43;6.23;;;15.00;99.90;;;;;;4953283;28;20228;-72
2022/05/03 19:13:56;;;;;;;13.40;5.50;;;14.90;99.90;;;;;;4954250;28;20212;-70
2022/05/03 19:16:24;;;;;;;13.03;5.90;;;14.80;99.90;;;;;;4953077;28;20212;-73
2022/05/03 19:18:53;;;;;;;11.13;5.50;;;14.80;99.90;;;;;;4953798;28;20236;-73
2022/05/03 19:21:19;;;;;;;13.83;6.57;;;14.60;99.90;;;;;;4953527;28;20212;-71
2022/05/03 19:31:56;;;;;;;13.63;6.23;;;14.50;99.90;;;;;;4953886;28;20281;-71
2022/05/03 19:34:26;;;;;;;13.80;6.60;;;14.40;99.90;;;;;;4954153;28;20208;-72
2022/05/03 19:36:55;;;;;;;12.67;5.53;;;14.50;99.90;;;;;;4953394;28;20683;-73
2022/05/03 19:39:22;;;;;;;15.00;6.20;;;14.40;99.90;;;;;;4953933;28;20326;-72
2022/05/03 19:41:49;;;;;;;12.37;5.70;;;14.40;99.90;;;;;;4953340;28;20238;-72
2022/05/03 19:44:16;;;;;;;15.60;6.67;;;14.30;99.90;;;;;;4953387;28;20698;-73
2022/05/03 19:46:45;;;;;;;11.23;5.67;;;14.30;99.90;;;;;;4954006;28;20212;-72
2022/05/03 19:49:11;;;;;;;15.03;6.53;;;14.10;99.90;;;;;;4953035;28;20211;-73
2022/05/03 19:51:41;;;;;;;13.60;5.43;;;14.20;99.90;;;;;;4953806;28;20224;-72
2022/05/03 19:54:08;;;;;;;14.73;5.53;;;14.20;99.90;;;;;;4957926;28;20210;-73
2022/05/03 19:56:35;;;;;;;11.43;4.97;;;14.00;99.90;;;;;;4958149;28;20303;-73
2022/05/03 19:59:01;;;;;;;13.40;5.47;;;14.00;99.90;;;;;;4957494;28;20267;-72
2022/05/03 20:01:29;;;;;;;11.50;6.13;;;14.10;99.90;;;;;;4957497;28;20351;-72
2022/05/03 20:03:56;;;;;;;14.57;6.03;;;14.10;99.90;;;;;;4980985;23;20231;-71
2022/05/03 20:06:23;;;;;;;14.20;6.17;;;14.00;99.90;;;;;;4976803;28;20207;-71
2022/05/03 20:08:51;;;;;;;14.00;5.97;;;14.00;99.90;;;;;;4963477;28;20211;-71
2022/05/03 20:11:18;;;;;;;12.20;5.00;;;13.90;99.90;;;;;;4967455;28;20216;-72
2022/05/03 20:13:44;;;;;;;12.57;6.10;;;13.80;99.90;;;;;;4968231;28;20205;-72
2022/05/03 20:16:11;;;;;;;12.47;5.73;;;13.90;99.90;;;;;;4963142;28;20303;-71
2022/05/03 20:18:38;;;;;;;14.03;5.87;;;13.80;99.90;;;;;;4965761;28;20295;-71
2022/05/03 20:21:05;;;;;;;13.13;5.47;;;13.80;99.90;;;;;;4961704;28;20574;-72
2022/05/03 20:23:32;;;;;;;10.97;5.23;;;13.70;99.90;;;;;;4972739;28;20565;-71
2022/05/03 20:26:00;;;;;;;13.60;5.83;;;13.70;99.90;;;;;;4961915;28;20655;-72
2022/05/03 20:28:28;;;;;;;12.37;5.63;;;13.80;99.90;;;;;;4967179;28;20208;-72
2022/05/03 20:30:57;;;;;;;13.30;5.37;;;13.80;99.90;;;;;;4960312;28;20208;-72
2022/05/03 20:33:25;;;;;;;14.63;5.77;;;13.80;99.90;;;;;;4968265;28;20235;-72
2022/05/03 20:35:51;;;;;;;10.50;5.23;;;13.70;99.90;;;;;;4963333;28;20571;-72
2022/05/03 20:38:18;;;;;;;10.27;5.20;;;13.70;99.90;;;;;;4970261;28;20234;-72
2022/05/03 20:40:45;;;;;;;11.13;5.17;;;13.80;99.90;;;;;;4970525;28;20232;-72
2022/05/03 20:43:13;;;;;;;9.57;4.50;;;13.70;99.90;;;;;;4971695;28;20223;-72
2022/05/03 20:45:40;;;;;;;13.00;5.63;;;13.70;99.90;;;;;;4964118;28;20663;-71
2022/05/03 20:50:52;;;;;;;16.33;5.27;;;13.90;99.90;;;;;;4970248;28;20210;-71
2022/05/03 20:53:19;;;;;;;10.30;4.83;;;13.70;99.90;;;;;;4969158;28;20231;-72
2022/05/03 20:55:45;;;;;;;12.07;5.40;;;13.50;99.90;;;;;;4963906;28;20218;-71
2022/05/03 20:58:14;;;;;;;11.33;4.83;;;13.50;99.90;;;;;;4969470;28;20319;-71
2022/05/03 21:00:41;;;;;;;13.60;5.70;;;13.70;99.90;;;;;;4965870;28;20199;-71
2022/05/03 21:03:08;;;;;;;11.37;4.60;;;13.60;99.90;;;;;;4971563;28;20236;-71
2022/05/03 21:05:35;;;;;;;11.97;5.07;;;13.60;99.90;;;;;;4968122;28;20243;-71
2022/05/03 21:08:02;;;;;;;11.47;4.77;;;13.60;99.90;;;;;;4956864;28;20215;-71
2022/05/03 21:10:29;;;;;;;10.87;4.70;;;13.50;99.90;;;;;;4961153;28;20208;-71
2022/05/03 21:12:56;;;;;;;10.67;4.93;;;13.60;99.90;;;;;;4973441;28;20231;-72
2022/05/03 21:15:24;;;;;;;12.77;5.13;;;13.40;99.90;;;;;;4973631;28;20211;-71